sensor_id;sensor_type;location;lat;lon;timestamp;temperature;humidity
27026;DHT22;14565;48.626;8.978;2024-01-25T00:01:21;8.00;99.90
27026;DHT22;14565;48.626;8.978;2024-01-25T00:03:47;7.90;99.90
27026;DHT22;14565;48.626;8.978;2024-01-25T00:06:12;7.90;99.90
27026;DHT22;14565;48.626;8.978;2024-01-25T00:08:38;7.90;99.90
27026;DHT22;14565;48.626;8.978;2024-01-25T00:11:04;7.90;99.90
27026;DHT22;14565;48.626;8.978;2024-01-25T00:13:30;7.90;99.90
27026;DHT22;14565;48.626;8.978;2024-01-25T00:15:55;8.00;99.90
27026;DHT22;14565;48.626;8.978;2024-01-25T00:18:21;8.00;99.90
27026;DHT22;14565;48.626;8.978;2024-01-25T00:20:47;7.90;99.90
27026;DHT22;14565;48.626;8.978;2024-01-25T00:23:12;7.90;99.90
27026;DHT22;14565;48.626;8.978;2024-01-25T00:25:38;7.90;99.90
27026;DHT22;14565;48.626;8.978;2024-01-25T00:28:04;7.90;99.90
27026;DHT22;14565;48.626;8.978;2024-01-25T00:30:30;7.90;99.90
27026;DHT22;14565;48.626;8.978;2024-01-25T00:32:56;7.90;99.90
27026;DHT22;14565;48.626;8.978;2024-01-25T00:35:22;7.90;99.90
27026;DHT22;14565;48.626;8.978;2024-01-25T00:37:48;7.80;99.90
27026;DHT22;14565;48.626;8.978;2024-01-25T00:40:13;7.80;99.90
27026;DHT22;14565;48.626;8.978;2024-01-25T00:42:43;7.90;99.90
27026;DHT22;14565;48.626;8.978;2024-01-25T00:45:10;7.90;99.90
27026;DHT22;14565;48.626;8.978;2024-01-25T00:47:36;7.90;99.90
27026;DHT22;14565;48.626;8.978;2024-01-25T00:50:03;7.80;99.90
27026;DHT22;14565;48.626;8.978;2024-01-25T00:52:29;7.80;99.90
27026;DHT22;14565;48.626;8.978;2024-01-25T00:54:55;7.90;99.90
27026;DHT22;14565;48.626;8.978;2024-01-25T00:57:20;7.80;99.90
27026;DHT22;14565;48.626;8.978;2024-01-25T00:59:46;7.80;99.90
27026;DHT22;14565;48.626;8.978;2024-01-25T01:02:12;7.80;99.90
27026;DHT22;14565;48.626;8.978;2024-01-25T01:04:38;7.90;99.90
27026;DHT22;14565;48.626;8.978;2024-01-25T01:07:04;7.90;99.90
27026;DHT22;14565;48.626;8.978;2024-01-25T01:09:30;7.90;99.90
27026;DHT22;14565;48.626;8.978;2024-01-25T01:11:55;7.90;99.90
27026;DHT22;14565;48.626;8.978;2024-01-25T01:14:21;7.80;99.90
27026;DHT22;14565;48.626;8.978;2024-01-25T01:16:46;7.90;99.90
27026;DHT22;14565;48.626;8.978;2024-01-25T01:19:12;7.90;99.90
27026;DHT22;14565;48.626;8.978;2024-01-25T01:21:37;7.90;99.90
27026;DHT22;14565;48.626;8.978;2024-01-25T01:24:04;7.80;99.90
27026;DHT22;14565;48.626;8.978;2024-01-25T01:26:29;7.80;99.90
27026;DHT22;14565;48.626;8.978;2024-01-25T01:28:55;7.70;99.90
27026;DHT22;14565;48.626;8.978;2024-01-25T01:31:21;7.90;99.90
27026;DHT22;14565;48.626;8.978;2024-01-25T01:33:46;7.80;99.90
27026;DHT22;14565;48.626;8.978;2024-01-25T01:36:12;7.80;99.90
27026;DHT22;14565;48.626;8.978;2024-01-25T01:38:37;7.70;99.90
27026;DHT22;14565;48.626;8.978;2024-01-25T01:41:03;7.60;99.90
27026;DHT22;14565;48.626;8.978;2024-01-25T01:43:28;7.60;99.90
27026;DHT22;14565;48.626;8.978;2024-01-25T01:45:54;7.60;99.90
27026;DHT22;14565;48.626;8.978;2024-01-25T01:48:23;7.50;99.90
27026;DHT22;14565;48.626;8.978;2024-01-25T01:50:48;7.60;99.90
27026;DHT22;14565;48.626;8.978;2024-01-25T01:53:14;7.60;99.90
27026;DHT22;14565;48.626;8.978;2024-01-25T01:55:40;7.70;99.90
27026;DHT22;14565;48.626;8.978;2024-01-25T01:58:07;7.60;99.90
27026;DHT22;14565;48.626;8.978;2024-01-25T02:00:32;7.60;99.90
27026;DHT22;14565;48.626;8.978;2024-01-25T02:02:59;7.50;99.90
27026;DHT22;14565;48.626;8.978;2024-01-25T02:05:24;7.50;99.90
27026;DHT22;14565;48.626;8.978;2024-01-25T02:07:50;7.30;99.90
27026;DHT22;14565;48.626;8.978;2024-01-25T02:10:17;7.40;99.90
27026;DHT22;14565;48.626;8.978;2024-01-25T02:12:43;7.40;99.90
27026;DHT22;14565;48.626;8.978;2024-01-25T02:15:08;7.30;99.90
27026;DHT22;14565;48.626;8.978;2024-01-25T02:17:34;7.30;99.90
27026;DHT22;14565;48.626;8.978;2024-01-25T02:19:59;7.40;99.90
27026;DHT22;14565;48.626;8.978;2024-01-25T02:22:27;7.30;99.90
27026;DHT22;14565;48.626;8.978;2024-01-25T02:24:53;7.30;99.90
27026;DHT22;14565;48.626;8.978;2024-01-25T02:27:18;7.40;99.90
27026;DHT22;14565;48.626;8.978;2024-01-25T02:29:44;7.40;99.90
27026;DHT22;14565;48.626;8.978;2024-01-25T02:32:10;7.40;99.90
27026;DHT22;14565;48.626;8.978;2024-01-25T02:34:35;7.30;99.90
27026;DHT22;14565;48.626;8.978;2024-01-25T02:37:01;7.30;99.90
27026;DHT22;14565;48.626;8.978;2024-01-25T02:39:26;7.20;99.90
27026;DHT22;14565;48.626;8.978;2024-01-25T02:41:52;7.20;99.90
27026;DHT22;14565;48.626;8.978;2024-01-25T02:44:17;7.30;99.90
27026;DHT22;14565;48.626;8.978;2024-01-25T02:46:43;7.20;99.90
27026;DHT22;14565;48.626;8.978;2024-01-25T02:49:10;7.20;99.90
27026;DHT22;14565;48.626;8.978;2024-01-25T02:51:35;7.20;99.90
27026;DHT22;14565;48.626;8.978;2024-01-25T02:54:01;7.10;99.90
27026;DHT22;14565;48.626;8.978;2024-01-25T02:56:28;7.10;99.90
27026;DHT22;14565;48.626;8.978;2024-01-25T02:58:59;7.10;99.90
27026;DHT22;14565;48.626;8.978;2024-01-25T03:01:24;7.20;99.90
27026;DHT22;14565;48.626;8.978;2024-01-25T03:03:50;7.10;99.90
27026;DHT22;14565;48.626;8.978;2024-01-25T03:06:15;7.20;99.90
27026;DHT22;14565;48.626;8.978;2024-01-25T03:08:41;7.20;99.90
27026;DHT22;14565;48.626;8.978;2024-01-25T03:11:06;7.20;99.90
27026;DHT22;14565;48.626;8.978;2024-01-25T03:13:32;7.20;99.90
27026;DHT22;14565;48.626;8.978;2024-01-25T03:15:59;7.20;99.90
27026;DHT22;14565;48.626;8.978;2024-01-25T03:18:25;7.30;99.90
27026;DHT22;14565;48.626;8.978;2024-01-25T03:20:51;7.30;99.90
27026;DHT22;14565;48.626;8.978;2024-01-25T03:23:16;7.30;99.90
27026;DHT22;14565;48.626;8.978;2024-01-25T03:25:42;7.30;99.90
27026;DHT22;14565;48.626;8.978;2024-01-25T03:28:08;7.20;99.90
27026;DHT22;14565;48.626;8.978;2024-01-25T03:30:34;7.20;99.90
27026;DHT22;14565;48.626;8.978;2024-01-25T03:33:00;7.20;99.90
27026;DHT22;14565;48.626;8.978;2024-01-25T03:35:25;7.20;99.90
27026;DHT22;14565;48.626;8.978;2024-01-25T03:37:51;7.20;99.90
27026;DHT22;14565;48.626;8.978;2024-01-25T03:40:16;7.20;99.90
27026;DHT22;14565;48.626;8.978;2024-01-25T03:42:42;7.20;99.90
27026;DHT22;14565;48.626;8.978;2024-01-25T03:45:08;7.20;99.90
27026;DHT22;14565;48.626;8.978;2024-01-25T03:47:33;7.10;99.90
27026;DHT22;14565;48.626;8.978;2024-01-25T03:49:59;7.10;99.90
27026;DHT22;14565;48.626;8.978;2024-01-25T03:52:25;7.10;99.90
27026;DHT22;14565;48.626;8.978;2024-01-25T03:54:50;7.10;99.90
27026;DHT22;14565;48.626;8.978;2024-01-25T03:57:16;7.00;99.90
27026;DHT22;14565;48.626;8.978;2024-01-25T03:59:41;7.10;99.90
27026;DHT22;14565;48.626;8.978;2024-01-25T04:02:07;7.00;99.90
27026;DHT22;14565;48.626;8.978;2024-01-25T04:04:33;7.00;99.90
27026;DHT22;14565;48.626;8.978;2024-01-25T04:06:59;7.00;99.90
27026;DHT22;14565;48.626;8.978;2024-01-25T04:09:24;7.00;99.90
27026;DHT22;14565;48.626;8.978;2024-01-25T04:11:50;7.00;99.90
27026;DHT22;14565;48.626;8.978;2024-01-25T04:14:15;7.00;99.90
27026;DHT22;14565;48.626;8.978;2024-01-25T04:16:41;6.90;99.90
27026;DHT22;14565;48.626;8.978;2024-01-25T04:19:07;7.00;99.90
27026;DHT22;14565;48.626;8.978;2024-01-25T04:21:32;7.00;99.90
27026;DHT22;14565;48.626;8.978;2024-01-25T04:23:58;7.00;99.90
27026;DHT22;14565;48.626;8.978;2024-01-25T04:26:24;7.00;99.90
27026;DHT22;14565;48.626;8.978;2024-01-25T04:28:50;7.00;99.90
27026;DHT22;14565;48.626;8.978;2024-01-25T04:31:16;6.90;99.90
27026;DHT22;14565;48.626;8.978;2024-01-25T04:33:41;7.00;99.90
27026;DHT22;14565;48.626;8.978;2024-01-25T04:36:07;6.90;99.90
27026;DHT22;14565;48.626;8.978;2024-01-25T04:38:32;6.90;99.90
27026;DHT22;14565;48.626;8.978;2024-01-25T04:40:58;6.90;99.90
27026;DHT22;14565;48.626;8.978;2024-01-25T04:43:24;7.00;99.90
27026;DHT22;14565;48.626;8.978;2024-01-25T04:45:49;7.00;99.90
27026;DHT22;14565;48.626;8.978;2024-01-25T04:48:15;7.10;99.90
27026;DHT22;14565;48.626;8.978;2024-01-25T04:50:41;7.10;99.90
27026;DHT22;14565;48.626;8.978;2024-01-25T04:53:06;6.90;99.90
27026;DHT22;14565;48.626;8.978;2024-01-25T04:55:32;7.00;99.90
27026;DHT22;14565;48.626;8.978;2024-01-25T04:57:57;6.90;99.90
27026;DHT22;14565;48.626;8.978;2024-01-25T05:00:23;6.90;99.90
27026;DHT22;14565;48.626;8.978;2024-01-25T05:02:48;6.90;99.90
27026;DHT22;14565;48.626;8.978;2024-01-25T05:05:14;6.90;99.90
27026;DHT22;14565;48.626;8.978;2024-01-25T05:07:40;6.80;99.90
27026;DHT22;14565;48.626;8.978;2024-01-25T05:10:06;6.80;99.90
27026;DHT22;14565;48.626;8.978;2024-01-25T05:12:31;6.80;99.90
27026;DHT22;14565;48.626;8.978;2024-01-25T05:14:57;6.70;99.90
27026;DHT22;14565;48.626;8.978;2024-01-25T05:17:23;6.70;99.90
27026;DHT22;14565;48.626;8.978;2024-01-25T05:19:48;6.70;99.90
27026;DHT22;14565;48.626;8.978;2024-01-25T05:22:14;6.70;99.90
27026;DHT22;14565;48.626;8.978;2024-01-25T05:24:40;6.70;99.90
27026;DHT22;14565;48.626;8.978;2024-01-25T05:27:05;6.80;99.90
27026;DHT22;14565;48.626;8.978;2024-01-25T05:29:31;6.80;99.90
27026;DHT22;14565;48.626;8.978;2024-01-25T05:31:57;6.70;99.90
27026;DHT22;14565;48.626;8.978;2024-01-25T05:34:22;6.70;99.90
27026;DHT22;14565;48.626;8.978;2024-01-25T05:36:48;6.60;99.90
27026;DHT22;14565;48.626;8.978;2024-01-25T05:39:14;6.60;99.90
27026;DHT22;14565;48.626;8.978;2024-01-25T05:41:40;6.50;99.90
27026;DHT22;14565;48.626;8.978;2024-01-25T05:44:05;6.50;99.90
27026;DHT22;14565;48.626;8.978;2024-01-25T05:46:31;6.40;99.90
27026;DHT22;14565;48.626;8.978;2024-01-25T05:48:56;6.40;99.90
27026;DHT22;14565;48.626;8.978;2024-01-25T05:51:22;6.40;99.90
27026;DHT22;14565;48.626;8.978;2024-01-25T05:53:48;6.40;99.90
27026;DHT22;14565;48.626;8.978;2024-01-25T05:56:13;6.40;99.90
27026;DHT22;14565;48.626;8.978;2024-01-25T05:58:39;6.40;99.90
27026;DHT22;14565;48.626;8.978;2024-01-25T06:01:04;6.30;99.90
27026;DHT22;14565;48.626;8.978;2024-01-25T06:03:30;6.20;99.90
27026;DHT22;14565;48.626;8.978;2024-01-25T06:05:55;6.20;99.90
27026;DHT22;14565;48.626;8.978;2024-01-25T06:08:21;6.20;99.90
27026;DHT22;14565;48.626;8.978;2024-01-25T06:10:46;6.20;99.90
27026;DHT22;14565;48.626;8.978;2024-01-25T06:13:12;6.30;99.90
27026;DHT22;14565;48.626;8.978;2024-01-25T06:15:37;6.20;99.90
27026;DHT22;14565;48.626;8.978;2024-01-25T06:18:04;6.20;99.90
27026;DHT22;14565;48.626;8.978;2024-01-25T06:20:29;6.10;99.90
27026;DHT22;14565;48.626;8.978;2024-01-25T06:22:55;6.10;99.90
27026;DHT22;14565;48.626;8.978;2024-01-25T06:25:20;6.10;99.90
27026;DHT22;14565;48.626;8.978;2024-01-25T06:27:46;6.00;99.90
27026;DHT22;14565;48.626;8.978;2024-01-25T06:30:11;6.00;99.90
27026;DHT22;14565;48.626;8.978;2024-01-25T06:32:37;5.90;99.90
27026;DHT22;14565;48.626;8.978;2024-01-25T06:35:03;5.80;99.90
27026;DHT22;14565;48.626;8.978;2024-01-25T06:37:29;5.80;99.90
27026;DHT22;14565;48.626;8.978;2024-01-25T06:39:55;5.80;99.90
27026;DHT22;14565;48.626;8.978;2024-01-25T06:42:20;5.70;99.90
27026;DHT22;14565;48.626;8.978;2024-01-25T06:44:47;5.80;99.90
27026;DHT22;14565;48.626;8.978;2024-01-25T06:47:12;5.70;99.90
27026;DHT22;14565;48.626;8.978;2024-01-25T06:49:38;5.80;99.90
27026;DHT22;14565;48.626;8.978;2024-01-25T06:52:04;5.80;99.90
27026;DHT22;14565;48.626;8.978;2024-01-25T06:54:29;5.60;99.90
27026;DHT22;14565;48.626;8.978;2024-01-25T06:56:56;5.60;99.90
27026;DHT22;14565;48.626;8.978;2024-01-25T06:59:22;5.50;99.90
27026;DHT22;14565;48.626;8.978;2024-01-25T07:01:47;5.50;99.90
27026;DHT22;14565;48.626;8.978;2024-01-25T07:04:13;5.40;99.90
27026;DHT22;14565;48.626;8.978;2024-01-25T07:06:38;5.30;99.90
27026;DHT22;14565;48.626;8.978;2024-01-25T07:09:04;5.30;99.90
27026;DHT22;14565;48.626;8.978;2024-01-25T07:11:30;5.30;99.90
27026;DHT22;14565;48.626;8.978;2024-01-25T07:13:55;5.30;99.90
27026;DHT22;14565;48.626;8.978;2024-01-25T07:16:21;5.30;99.90
27026;DHT22;14565;48.626;8.978;2024-01-25T07:18:47;5.30;99.90
27026;DHT22;14565;48.626;8.978;2024-01-25T07:21:12;5.20;99.90
27026;DHT22;14565;48.626;8.978;2024-01-25T07:23:37;5.10;99.90
27026;DHT22;14565;48.626;8.978;2024-01-25T07:26:03;5.10;99.90
27026;DHT22;14565;48.626;8.978;2024-01-25T07:28:29;5.20;99.90
27026;DHT22;14565;48.626;8.978;2024-01-25T07:30:54;5.30;99.90
27026;DHT22;14565;48.626;8.978;2024-01-25T07:33:19;5.30;99.90
27026;DHT22;14565;48.626;8.978;2024-01-25T07:35:45;5.30;99.90
27026;DHT22;14565;48.626;8.978;2024-01-25T07:38:14;5.40;99.90
27026;DHT22;14565;48.626;8.978;2024-01-25T07:40:39;5.40;99.90
27026;DHT22;14565;48.626;8.978;2024-01-25T07:43:05;5.50;99.90
27026;DHT22;14565;48.626;8.978;2024-01-25T07:45:31;5.40;99.90
27026;DHT22;14565;48.626;8.978;2024-01-25T07:47:56;5.30;99.90
27026;DHT22;14565;48.626;8.978;2024-01-25T07:50:22;5.30;99.90
27026;DHT22;14565;48.626;8.978;2024-01-25T07:52:47;5.30;99.90
27026;DHT22;14565;48.626;8.978;2024-01-25T07:55:15;5.40;99.90
27026;DHT22;14565;48.626;8.978;2024-01-25T07:57:41;5.50;99.90
27026;DHT22;14565;48.626;8.978;2024-01-25T08:00:06;5.40;99.90
27026;DHT22;14565;48.626;8.978;2024-01-25T08:02:33;5.50;99.90
27026;DHT22;14565;48.626;8.978;2024-01-25T08:04:59;5.40;99.90
27026;DHT22;14565;48.626;8.978;2024-01-25T08:07:24;5.50;99.90
27026;DHT22;14565;48.626;8.978;2024-01-25T08:09:50;5.50;99.90
27026;DHT22;14565;48.626;8.978;2024-01-25T08:12:18;5.40;99.90
27026;DHT22;14565;48.626;8.978;2024-01-25T08:14:43;5.50;99.90
27026;DHT22;14565;48.626;8.978;2024-01-25T08:17:09;5.50;99.90
27026;DHT22;14565;48.626;8.978;2024-01-25T08:19:35;5.60;99.90
27026;DHT22;14565;48.626;8.978;2024-01-25T08:22:00;5.70;99.90
27026;DHT22;14565;48.626;8.978;2024-01-25T08:24:26;5.70;99.90
27026;DHT22;14565;48.626;8.978;2024-01-25T08:26:51;5.80;99.90
27026;DHT22;14565;48.626;8.978;2024-01-25T08:29:17;5.90;99.90
27026;DHT22;14565;48.626;8.978;2024-01-25T08:31:42;6.00;99.90
27026;DHT22;14565;48.626;8.978;2024-01-25T08:34:08;6.10;99.90
27026;DHT22;14565;48.626;8.978;2024-01-25T08:36:33;6.20;99.90
27026;DHT22;14565;48.626;8.978;2024-01-25T08:38:59;6.40;99.90
27026;DHT22;14565;48.626;8.978;2024-01-25T08:41:25;6.40;99.90
27026;DHT22;14565;48.626;8.978;2024-01-25T08:43:50;6.50;99.90
27026;DHT22;14565;48.626;8.978;2024-01-25T08:46:16;6.50;99.90
27026;DHT22;14565;48.626;8.978;2024-01-25T08:48:42;6.50;99.90
27026;DHT22;14565;48.626;8.978;2024-01-25T08:51:07;6.60;99.90
27026;DHT22;14565;48.626;8.978;2024-01-25T08:53:33;6.60;99.90
27026;DHT22;14565;48.626;8.978;2024-01-25T08:55:59;6.70;99.90
27026;DHT22;14565;48.626;8.978;2024-01-25T08:58:24;6.80;99.90
27026;DHT22;14565;48.626;8.978;2024-01-25T09:00:50;6.90;99.90
27026;DHT22;14565;48.626;8.978;2024-01-25T09:03:16;7.10;99.90
27026;DHT22;14565;48.626;8.978;2024-01-25T09:05:41;7.10;99.90
27026;DHT22;14565;48.626;8.978;2024-01-25T09:08:13;7.30;99.90
27026;DHT22;14565;48.626;8.978;2024-01-25T09:10:40;7.40;99.90
27026;DHT22;14565;48.626;8.978;2024-01-25T09:13:05;7.40;99.90
27026;DHT22;14565;48.626;8.978;2024-01-25T09:15:31;7.50;99.90
27026;DHT22;14565;48.626;8.978;2024-01-25T09:17:56;7.50;99.90
27026;DHT22;14565;48.626;8.978;2024-01-25T09:20:22;7.60;99.90
27026;DHT22;14565;48.626;8.978;2024-01-25T09:22:47;7.70;99.90
27026;DHT22;14565;48.626;8.978;2024-01-25T09:25:13;7.90;99.90
27026;DHT22;14565;48.626;8.978;2024-01-25T09:27:39;8.00;99.90
27026;DHT22;14565;48.626;8.978;2024-01-25T09:30:07;8.00;99.90
27026;DHT22;14565;48.626;8.978;2024-01-25T09:32:33;8.10;99.90
27026;DHT22;14565;48.626;8.978;2024-01-25T09:34:59;8.20;99.90
27026;DHT22;14565;48.626;8.978;2024-01-25T09:37:24;8.30;99.90
27026;DHT22;14565;48.626;8.978;2024-01-25T09:39:50;8.40;99.90
27026;DHT22;14565;48.626;8.978;2024-01-25T09:42:17;8.50;99.90
27026;DHT22;14565;48.626;8.978;2024-01-25T09:44:43;8.60;99.90
27026;DHT22;14565;48.626;8.978;2024-01-25T09:47:09;8.80;99.90
27026;DHT22;14565;48.626;8.978;2024-01-25T09:49:35;9.10;99.90
27026;DHT22;14565;48.626;8.978;2024-01-25T09:52:03;9.20;99.90
27026;DHT22;14565;48.626;8.978;2024-01-25T09:54:38;9.50;99.90
27026;DHT22;14565;48.626;8.978;2024-01-25T09:57:26;9.40;99.90
27026;DHT22;14565;48.626;8.978;2024-01-25T09:59:50;9.70;99.90
27026;DHT22;14565;48.626;8.978;2024-01-25T10:02:20;9.70;99.90
27026;DHT22;14565;48.626;8.978;2024-01-25T10:04:49;9.40;99.90
27026;DHT22;14565;48.626;8.978;2024-01-25T10:07:15;9.10;99.90
27026;DHT22;14565;48.626;8.978;2024-01-25T10:09:41;8.90;99.90
27026;DHT22;14565;48.626;8.978;2024-01-25T10:12:06;9.10;99.90
27026;DHT22;14565;48.626;8.978;2024-01-25T10:14:32;9.10;99.90
27026;DHT22;14565;48.626;8.978;2024-01-25T10:16:57;9.10;99.90
27026;DHT22;14565;48.626;8.978;2024-01-25T10:19:23;9.20;99.90
27026;DHT22;14565;48.626;8.978;2024-01-25T10:21:50;9.20;99.90
27026;DHT22;14565;48.626;8.978;2024-01-25T10:24:15;9.00;99.90
27026;DHT22;14565;48.626;8.978;2024-01-25T10:26:41;9.00;99.90
27026;DHT22;14565;48.626;8.978;2024-01-25T10:29:08;8.90;99.90
27026;DHT22;14565;48.626;8.978;2024-01-25T10:31:35;8.60;99.90
27026;DHT22;14565;48.626;8.978;2024-01-25T10:34:03;8.60;99.90
27026;DHT22;14565;48.626;8.978;2024-01-25T10:36:30;8.60;99.90
27026;DHT22;14565;48.626;8.978;2024-01-25T10:38:56;8.60;99.90
27026;DHT22;14565;48.626;8.978;2024-01-25T10:41:23;8.50;99.90
27026;DHT22;14565;48.626;8.978;2024-01-25T10:43:48;8.70;99.90
27026;DHT22;14565;48.626;8.978;2024-01-25T10:46:14;8.90;99.90
27026;DHT22;14565;48.626;8.978;2024-01-25T10:48:40;8.90;99.90
27026;DHT22;14565;48.626;8.978;2024-01-25T10:51:06;9.20;99.90
27026;DHT22;14565;48.626;8.978;2024-01-25T10:53:32;9.00;99.90
27026;DHT22;14565;48.626;8.978;2024-01-25T10:55:58;9.30;99.90
27026;DHT22;14565;48.626;8.978;2024-01-25T10:58:23;9.30;99.90
27026;DHT22;14565;48.626;8.978;2024-01-25T11:00:54;9.30;99.90
27026;DHT22;14565;48.626;8.978;2024-01-25T11:03:25;9.50;99.90
27026;DHT22;14565;48.626;8.978;2024-01-25T11:05:51;9.40;99.90
27026;DHT22;14565;48.626;8.978;2024-01-25T11:08:20;9.40;99.90
27026;DHT22;14565;48.626;8.978;2024-01-25T11:10:52;9.30;99.90
27026;DHT22;14565;48.626;8.978;2024-01-25T11:13:23;9.40;99.90
27026;DHT22;14565;48.626;8.978;2024-01-25T11:15:48;9.10;99.90
27026;DHT22;14565;48.626;8.978;2024-01-25T11:18:14;8.90;99.90
27026;DHT22;14565;48.626;8.978;2024-01-25T11:20:39;8.90;99.90
27026;DHT22;14565;48.626;8.978;2024-01-25T11:23:06;8.80;99.90
27026;DHT22;14565;48.626;8.978;2024-01-25T11:25:34;9.10;99.90
27026;DHT22;14565;48.626;8.978;2024-01-25T11:28:00;9.20;99.90
27026;DHT22;14565;48.626;8.978;2024-01-25T11:30:27;9.20;99.90
27026;DHT22;14565;48.626;8.978;2024-01-25T11:32:53;9.20;99.90
27026;DHT22;14565;48.626;8.978;2024-01-25T11:35:19;9.20;99.90
27026;DHT22;14565;48.626;8.978;2024-01-25T11:37:51;9.30;99.90
27026;DHT22;14565;48.626;8.978;2024-01-25T11:40:17;9.20;99.90
27026;DHT22;14565;48.626;8.978;2024-01-25T11:42:43;9.00;99.90
27026;DHT22;14565;48.626;8.978;2024-01-25T11:45:11;9.00;99.90
27026;DHT22;14565;48.626;8.978;2024-01-25T11:47:37;8.80;99.90
27026;DHT22;14565;48.626;8.978;2024-01-25T11:50:03;8.70;99.90
27026;DHT22;14565;48.626;8.978;2024-01-25T11:52:29;8.70;99.90
27026;DHT22;14565;48.626;8.978;2024-01-25T11:54:57;8.90;99.90
27026;DHT22;14565;48.626;8.978;2024-01-25T11:57:22;9.00;99.90
27026;DHT22;14565;48.626;8.978;2024-01-25T11:59:48;9.00;99.90
27026;DHT22;14565;48.626;8.978;2024-01-25T12:02:15;8.90;99.90
27026;DHT22;14565;48.626;8.978;2024-01-25T12:04:40;8.90;99.90
27026;DHT22;14565;48.626;8.978;2024-01-25T12:07:06;8.90;99.90
27026;DHT22;14565;48.626;8.978;2024-01-25T12:09:32;9.00;99.90
27026;DHT22;14565;48.626;8.978;2024-01-25T12:11:57;9.10;99.90
27026;DHT22;14565;48.626;8.978;2024-01-25T12:14:25;9.20;99.90
27026;DHT22;14565;48.626;8.978;2024-01-25T12:16:50;9.30;99.90
27026;DHT22;14565;48.626;8.978;2024-01-25T12:19:16;9.30;99.90
27026;DHT22;14565;48.626;8.978;2024-01-25T12:21:44;9.30;99.90
27026;DHT22;14565;48.626;8.978;2024-01-25T12:24:10;9.40;99.90
27026;DHT22;14565;48.626;8.978;2024-01-25T12:26:36;9.40;99.90
27026;DHT22;14565;48.626;8.978;2024-01-25T12:29:02;9.30;99.90
27026;DHT22;14565;48.626;8.978;2024-01-25T12:31:28;9.30;99.90
27026;DHT22;14565;48.626;8.978;2024-01-25T12:33:54;9.40;99.90
27026;DHT22;14565;48.626;8.978;2024-01-25T12:36:19;9.50;99.90
27026;DHT22;14565;48.626;8.978;2024-01-25T12:38:45;9.50;99.90
27026;DHT22;14565;48.626;8.978;2024-01-25T12:41:10;9.70;99.90
27026;DHT22;14565;48.626;8.978;2024-01-25T12:43:36;9.70;99.90
27026;DHT22;14565;48.626;8.978;2024-01-25T12:46:01;9.90;99.90
27026;DHT22;14565;48.626;8.978;2024-01-25T12:48:28;10.00;99.90
27026;DHT22;14565;48.626;8.978;2024-01-25T12:50:53;10.10;99.90
27026;DHT22;14565;48.626;8.978;2024-01-25T12:53:19;10.20;99.90
27026;DHT22;14565;48.626;8.978;2024-01-25T12:55:45;10.00;99.90
27026;DHT22;14565;48.626;8.978;2024-01-25T12:58:10;10.00;99.90
27026;DHT22;14565;48.626;8.978;2024-01-25T13:00:36;10.10;99.90
27026;DHT22;14565;48.626;8.978;2024-01-25T13:03:01;10.00;99.90
27026;DHT22;14565;48.626;8.978;2024-01-25T13:05:27;10.10;99.90
27026;DHT22;14565;48.626;8.978;2024-01-25T13:07:52;10.20;99.90
27026;DHT22;14565;48.626;8.978;2024-01-25T13:10:18;10.10;99.90
27026;DHT22;14565;48.626;8.978;2024-01-25T13:12:43;9.90;99.90
27026;DHT22;14565;48.626;8.978;2024-01-25T13:15:09;9.80;99.90
27026;DHT22;14565;48.626;8.978;2024-01-25T13:17:35;9.70;99.90
27026;DHT22;14565;48.626;8.978;2024-01-25T13:20:01;9.90;99.90
27026;DHT22;14565;48.626;8.978;2024-01-25T13:22:28;9.90;99.90
27026;DHT22;14565;48.626;8.978;2024-01-25T13:24:55;10.00;99.90
27026;DHT22;14565;48.626;8.978;2024-01-25T13:27:20;10.00;99.90
27026;DHT22;14565;48.626;8.978;2024-01-25T13:29:46;10.00;99.90
27026;DHT22;14565;48.626;8.978;2024-01-25T13:32:11;9.90;99.90
27026;DHT22;14565;48.626;8.978;2024-01-25T13:34:37;9.80;99.90
27026;DHT22;14565;48.626;8.978;2024-01-25T13:37:02;9.70;99.90
27026;DHT22;14565;48.626;8.978;2024-01-25T13:39:28;9.60;99.90
27026;DHT22;14565;48.626;8.978;2024-01-25T13:41:54;9.50;99.90
27026;DHT22;14565;48.626;8.978;2024-01-25T13:44:21;9.60;99.90
27026;DHT22;14565;48.626;8.978;2024-01-25T13:46:47;9.70;99.90
27026;DHT22;14565;48.626;8.978;2024-01-25T13:49:12;9.70;99.90
27026;DHT22;14565;48.626;8.978;2024-01-25T13:51:38;9.70;99.90
27026;DHT22;14565;48.626;8.978;2024-01-25T13:54:03;9.50;99.90
27026;DHT22;14565;48.626;8.978;2024-01-25T13:56:29;9.50;99.90
27026;DHT22;14565;48.626;8.978;2024-01-25T13:58:54;9.40;99.90
27026;DHT22;14565;48.626;8.978;2024-01-25T14:01:20;9.50;99.90
27026;DHT22;14565;48.626;8.978;2024-01-25T14:03:45;9.40;99.90
27026;DHT22;14565;48.626;8.978;2024-01-25T14:06:11;9.40;99.90
27026;DHT22;14565;48.626;8.978;2024-01-25T14:08:37;9.30;99.90
27026;DHT22;14565;48.626;8.978;2024-01-25T14:11:02;9.40;99.90
27026;DHT22;14565;48.626;8.978;2024-01-25T14:13:28;9.30;99.90
27026;DHT22;14565;48.626;8.978;2024-01-25T14:15:54;9.30;99.90
27026;DHT22;14565;48.626;8.978;2024-01-25T14:18:19;9.30;99.90
27026;DHT22;14565;48.626;8.978;2024-01-25T14:20:45;9.30;99.90
27026;DHT22;14565;48.626;8.978;2024-01-25T14:23:10;9.20;99.90
27026;DHT22;14565;48.626;8.978;2024-01-25T14:25:35;9.30;99.90
27026;DHT22;14565;48.626;8.978;2024-01-25T14:28:01;9.30;99.90
27026;DHT22;14565;48.626;8.978;2024-01-25T14:30:27;9.20;99.90
27026;DHT22;14565;48.626;8.978;2024-01-25T14:32:52;9.10;99.90
27026;DHT22;14565;48.626;8.978;2024-01-25T14:35:18;9.10;99.90
27026;DHT22;14565;48.626;8.978;2024-01-25T14:37:44;9.00;99.90
27026;DHT22;14565;48.626;8.978;2024-01-25T14:40:09;9.00;99.90
27026;DHT22;14565;48.626;8.978;2024-01-25T14:42:36;9.00;99.90
27026;DHT22;14565;48.626;8.978;2024-01-25T14:45:03;8.90;99.90
27026;DHT22;14565;48.626;8.978;2024-01-25T14:47:28;8.90;99.90
27026;DHT22;14565;48.626;8.978;2024-01-25T14:49:54;9.00;99.90
27026;DHT22;14565;48.626;8.978;2024-01-25T14:52:19;8.90;99.90
27026;DHT22;14565;48.626;8.978;2024-01-25T14:54:45;8.90;99.90
27026;DHT22;14565;48.626;8.978;2024-01-25T14:57:10;8.90;99.90
27026;DHT22;14565;48.626;8.978;2024-01-25T14:59:37;8.80;99.90
27026;DHT22;14565;48.626;8.978;2024-01-25T15:02:02;8.80;99.90
27026;DHT22;14565;48.626;8.978;2024-01-25T15:04:28;8.80;99.90
27026;DHT22;14565;48.626;8.978;2024-01-25T15:06:55;8.70;99.90
27026;DHT22;14565;48.626;8.978;2024-01-25T15:09:20;8.70;99.90
27026;DHT22;14565;48.626;8.978;2024-01-25T15:11:46;8.70;99.90
27026;DHT22;14565;48.626;8.978;2024-01-25T15:14:13;8.70;99.90
27026;DHT22;14565;48.626;8.978;2024-01-25T15:16:39;8.70;99.90
27026;DHT22;14565;48.626;8.978;2024-01-25T15:19:04;8.70;99.90
27026;DHT22;14565;48.626;8.978;2024-01-25T15:21:30;8.80;99.90
27026;DHT22;14565;48.626;8.978;2024-01-25T15:23:55;8.70;99.90
27026;DHT22;14565;48.626;8.978;2024-01-25T15:26:21;8.80;99.90
27026;DHT22;14565;48.626;8.978;2024-01-25T15:28:46;8.90;99.90
27026;DHT22;14565;48.626;8.978;2024-01-25T15:31:12;8.90;99.90
27026;DHT22;14565;48.626;8.978;2024-01-25T15:33:38;8.80;99.90
27026;DHT22;14565;48.626;8.978;2024-01-25T15:36:04;8.80;99.90